sensor_id;sensor_type;location;lat;lon;timestamp;P1;durP1;ratioP1;P2;durP2;ratioP2
14526;SDS011;7350;51.208;4.238;2023-03-23T00:01:26;2.70;;;1.60;;
14526;SDS011;7350;51.208;4.238;2023-03-23T00:03:56;1.42;;;1.20;;
14526;SDS011;7350;51.208;4.238;2023-03-23T00:06:25;2.60;;;1.27;;
14526;SDS011;7350;51.208;4.238;2023-03-23T00:08:59;2.05;;;1.70;;
14526;SDS011;7350;51.208;4.238;2023-03-23T00:11:27;2.65;;;1.38;;
14526;SDS011;7350;51.208;4.238;2023-03-23T00:13:56;2.38;;;1.60;;
14526;SDS011;7350;51.208;4.238;2023-03-23T00:16:26;2.85;;;1.50;;
14526;SDS011;7350;51.208;4.238;2023-03-23T00:18:56;2.20;;;1.63;;
14526;SDS011;7350;51.208;4.238;2023-03-23T00:21:25;2.05;;;1.42;;
14526;SDS011;7350;51.208;4.238;2023-03-23T00:23:59;1.65;;;1.27;;
14526;SDS011;7350;51.208;4.238;2023-03-23T00:26:27;2.15;;;1.70;;
14526;SDS011;7350;51.208;4.238;2023-03-23T00:28:54;1.60;;;1.50;;
14526;SDS011;7350;51.208;4.238;2023-03-23T00:31:25;1.83;;;1.40;;
14526;SDS011;7350;51.208;4.238;2023-03-23T00:33:56;1.70;;;1.48;;
14526;SDS011;7350;51.208;4.238;2023-03-23T00:36:23;1.95;;;1.52;;
14526;SDS011;7350;51.208;4.238;2023-03-23T00:38:51;1.90;;;1.30;;
14526;SDS011;7350;51.208;4.238;2023-03-23T00:41:19;1.42;;;1.30;;
14526;SDS011;7350;51.208;4.238;2023-03-23T00:43:46;2.75;;;1.70;;
14526;SDS011;7350;51.208;4.238;2023-03-23T00:46:13;1.58;;;1.48;;
14526;SDS011;7350;51.208;4.238;2023-03-23T00:48:40;1.45;;;1.35;;
14526;SDS011;7350;51.208;4.238;2023-03-23T00:51:09;1.38;;;1.27;;
14526;SDS011;7350;51.208;4.238;2023-03-23T00:53:37;1.63;;;1.30;;
14526;SDS011;7350;51.208;4.238;2023-03-23T00:56:05;1.85;;;1.40;;
14526;SDS011;7350;51.208;4.238;2023-03-23T00:58:34;2.28;;;1.45;;
14526;SDS011;7350;51.208;4.238;2023-03-23T01:01:01;2.95;;;1.17;;
14526;SDS011;7350;51.208;4.238;2023-03-23T01:03:29;2.28;;;1.50;;
14526;SDS011;7350;51.208;4.238;2023-03-23T01:05:56;2.20;;;1.63;;
14526;SDS011;7350;51.208;4.238;2023-03-23T01:08:23;1.50;;;1.40;;
14526;SDS011;7350;51.208;4.238;2023-03-23T01:10:51;2.63;;;1.42;;
14526;SDS011;7350;51.208;4.238;2023-03-23T01:13:29;2.13;;;1.40;;
14526;SDS011;7350;51.208;4.238;2023-03-23T01:15:58;1.52;;;1.08;;
14526;SDS011;7350;51.208;4.238;2023-03-23T01:18:25;2.10;;;1.27;;
14526;SDS011;7350;51.208;4.238;2023-03-23T01:20:52;2.10;;;1.48;;
14526;SDS011;7350;51.208;4.238;2023-03-23T01:23:19;1.73;;;1.63;;
14526;SDS011;7350;51.208;4.238;2023-03-23T01:25:46;2.35;;;1.67;;
14526;SDS011;7350;51.208;4.238;2023-03-23T01:28:14;1.50;;;1.40;;
14526;SDS011;7350;51.208;4.238;2023-03-23T01:30:41;1.33;;;1.23;;
14526;SDS011;7350;51.208;4.238;2023-03-23T01:33:09;2.05;;;1.55;;
14526;SDS011;7350;51.208;4.238;2023-03-23T01:35:37;1.38;;;1.25;;
14526;SDS011;7350;51.208;4.238;2023-03-23T01:38:04;2.28;;;1.50;;
14526;SDS011;7350;51.208;4.238;2023-03-23T01:40:31;1.35;;;1.25;;
14526;SDS011;7350;51.208;4.238;2023-03-23T01:42:58;1.80;;;1.40;;
14526;SDS011;7350;51.208;4.238;2023-03-23T01:45:27;2.17;;;1.67;;
14526;SDS011;7350;51.208;4.238;2023-03-23T01:48:08;1.67;;;1.40;;
14526;SDS011;7350;51.208;4.238;2023-03-23T01:50:41;2.17;;;1.40;;
14526;SDS011;7350;51.208;4.238;2023-03-23T01:53:14;1.40;;;1.23;;
14526;SDS011;7350;51.208;4.238;2023-03-23T01:55:42;1.50;;;1.30;;
14526;SDS011;7350;51.208;4.238;2023-03-23T01:58:13;1.50;;;1.40;;
14526;SDS011;7350;51.208;4.238;2023-03-23T02:00:41;1.67;;;1.45;;
14526;SDS011;7350;51.208;4.238;2023-03-23T02:03:09;1.88;;;1.70;;
14526;SDS011;7350;51.208;4.238;2023-03-23T02:05:41;1.48;;;1.38;;
14526;SDS011;7350;51.208;4.238;2023-03-23T02:08:08;1.80;;;1.45;;
14526;SDS011;7350;51.208;4.238;2023-03-23T02:10:38;1.77;;;1.45;;
14526;SDS011;7350;51.208;4.238;2023-03-23T02:13:06;1.83;;;1.50;;
14526;SDS011;7350;51.208;4.238;2023-03-23T02:15:38;1.83;;;1.40;;
14526;SDS011;7350;51.208;4.238;2023-03-23T02:18:17;1.38;;;1.25;;
14526;SDS011;7350;51.208;4.238;2023-03-23T02:21:15;2.13;;;1.20;;
14526;SDS011;7350;51.208;4.238;2023-03-23T02:26:57;1.77;;;1.23;;
14526;SDS011;7350;51.208;4.238;2023-03-23T02:32:24;1.67;;;1.38;;
14526;SDS011;7350;51.208;4.238;2023-03-23T02:35:17;1.30;;;1.20;;
14526;SDS011;7350;51.208;4.238;2023-03-23T02:37:48;1.48;;;1.25;;
14526;SDS011;7350;51.208;4.238;2023-03-23T02:40:19;1.35;;;1.25;;
14526;SDS011;7350;51.208;4.238;2023-03-23T02:42:51;2.10;;;1.40;;
14526;SDS011;7350;51.208;4.238;2023-03-23T02:45:21;1.60;;;1.30;;
14526;SDS011;7350;51.208;4.238;2023-03-23T02:47:51;1.55;;;1.33;;
14526;SDS011;7350;51.208;4.238;2023-03-23T02:50:22;1.63;;;1.25;;
14526;SDS011;7350;51.208;4.238;2023-03-23T02:52:52;2.05;;;1.17;;
14526;SDS011;7350;51.208;4.238;2023-03-23T02:55:20;1.25;;;1.15;;
14526;SDS011;7350;51.208;4.238;2023-03-23T02:57:49;1.42;;;1.10;;
14526;SDS011;7350;51.208;4.238;2023-03-23T03:00:17;1.30;;;1.20;;
14526;SDS011;7350;51.208;4.238;2023-03-23T03:02:46;2.15;;;1.50;;
14526;SDS011;7350;51.208;4.238;2023-03-23T03:05:18;1.25;;;0.98;;
14526;SDS011;7350;51.208;4.238;2023-03-23T03:08:00;2.53;;;1.20;;
14526;SDS011;7350;51.208;4.238;2023-03-23T03:10:49;2.08;;;1.30;;
14526;SDS011;7350;51.208;4.238;2023-03-23T03:13:25;1.20;;;1.10;;
14526;SDS011;7350;51.208;4.238;2023-03-23T03:16:00;1.83;;;1.20;;
14526;SDS011;7350;51.208;4.238;2023-03-23T03:18:34;1.65;;;0.90;;
14526;SDS011;7350;51.208;4.238;2023-03-23T03:21:11;1.33;;;1.00;;
14526;SDS011;7350;51.208;4.238;2023-03-23T03:23:40;1.33;;;1.10;;
14526;SDS011;7350;51.208;4.238;2023-03-23T03:26:11;1.85;;;1.20;;
14526;SDS011;7350;51.208;4.238;2023-03-23T03:28:42;2.22;;;1.10;;
14526;SDS011;7350;51.208;4.238;2023-03-23T03:31:13;2.50;;;1.20;;
14526;SDS011;7350;51.208;4.238;2023-03-23T03:33:43;2.00;;;1.10;;
14526;SDS011;7350;51.208;4.238;2023-03-23T03:36:15;1.23;;;0.88;;
14526;SDS011;7350;51.208;4.238;2023-03-23T03:38:45;1.73;;;1.00;;
14526;SDS011;7350;51.208;4.238;2023-03-23T03:41:14;2.38;;;1.35;;
14526;SDS011;7350;51.208;4.238;2023-03-23T03:43:42;3.78;;;1.17;;
14526;SDS011;7350;51.208;4.238;2023-03-23T03:46:09;1.35;;;1.20;;
14526;SDS011;7350;51.208;4.238;2023-03-23T03:48:36;3.10;;;1.20;;
14526;SDS011;7350;51.208;4.238;2023-03-23T03:51:03;2.13;;;1.20;;
14526;SDS011;7350;51.208;4.238;2023-03-23T03:53:32;4.05;;;1.40;;
14526;SDS011;7350;51.208;4.238;2023-03-23T03:55:59;2.92;;;1.38;;
14526;SDS011;7350;51.208;4.238;2023-03-23T03:58:26;2.83;;;1.10;;
14526;SDS011;7350;51.208;4.238;2023-03-23T04:00:56;1.63;;;1.05;;
14526;SDS011;7350;51.208;4.238;2023-03-23T04:03:24;2.65;;;1.33;;
14526;SDS011;7350;51.208;4.238;2023-03-23T04:05:52;2.30;;;1.05;;
14526;SDS011;7350;51.208;4.238;2023-03-23T04:08:20;2.53;;;1.20;;
14526;SDS011;7350;51.208;4.238;2023-03-23T04:10:49;2.55;;;1.50;;
14526;SDS011;7350;51.208;4.238;2023-03-23T04:13:16;3.20;;;1.20;;
14526;SDS011;7350;51.208;4.238;2023-03-23T04:15:44;2.53;;;1.10;;
14526;SDS011;7350;51.208;4.238;2023-03-23T04:18:11;3.08;;;1.17;;
14526;SDS011;7350;51.208;4.238;2023-03-23T04:20:41;1.33;;;1.00;;
14526;SDS011;7350;51.208;4.238;2023-03-23T04:23:09;2.10;;;1.10;;
14526;SDS011;7350;51.208;4.238;2023-03-23T04:25:36;2.47;;;1.05;;
14526;SDS011;7350;51.208;4.238;2023-03-23T04:28:06;3.55;;;1.45;;
14526;SDS011;7350;51.208;4.238;2023-03-23T04:30:35;2.63;;;1.00;;
14526;SDS011;7350;51.208;4.238;2023-03-23T04:33:02;2.30;;;1.00;;
14526;SDS011;7350;51.208;4.238;2023-03-23T04:35:29;2.47;;;1.40;;
14526;SDS011;7350;51.208;4.238;2023-03-23T04:37:56;2.95;;;1.17;;
14526;SDS011;7350;51.208;4.238;2023-03-23T04:40:23;3.72;;;1.10;;
14526;SDS011;7350;51.208;4.238;2023-03-23T04:42:50;3.10;;;1.08;;
14526;SDS011;7350;51.208;4.238;2023-03-23T04:45:23;3.92;;;1.30;;
14526;SDS011;7350;51.208;4.238;2023-03-23T04:47:51;6.10;;;1.30;;
14526;SDS011;7350;51.208;4.238;2023-03-23T04:50:22;4.38;;;1.30;;
14526;SDS011;7350;51.208;4.238;2023-03-23T04:52:51;5.45;;;1.30;;
14526;SDS011;7350;51.208;4.238;2023-03-23T04:55:19;1.60;;;1.20;;
14526;SDS011;7350;51.208;4.238;2023-03-23T04:57:47;3.50;;;1.40;;
14526;SDS011;7350;51.208;4.238;2023-03-23T05:00:14;2.63;;;1.10;;
14526;SDS011;7350;51.208;4.238;2023-03-23T05:02:43;2.50;;;0.93;;
14526;SDS011;7350;51.208;4.238;2023-03-23T05:05:12;1.60;;;0.90;;
14526;SDS011;7350;51.208;4.238;2023-03-23T05:07:40;2.83;;;1.00;;
14526;SDS011;7350;51.208;4.238;2023-03-23T05:10:09;1.85;;;0.90;;
14526;SDS011;7350;51.208;4.238;2023-03-23T05:12:37;2.47;;;1.25;;
14526;SDS011;7350;51.208;4.238;2023-03-23T05:15:05;2.15;;;1.08;;
14526;SDS011;7350;51.208;4.238;2023-03-23T05:17:33;3.38;;;1.38;;
14526;SDS011;7350;51.208;4.238;2023-03-23T05:20:03;2.83;;;0.98;;
14526;SDS011;7350;51.208;4.238;2023-03-23T05:22:33;3.20;;;1.45;;
14526;SDS011;7350;51.208;4.238;2023-03-23T05:25:01;2.60;;;0.90;;
14526;SDS011;7350;51.208;4.238;2023-03-23T05:27:29;5.00;;;0.95;;
14526;SDS011;7350;51.208;4.238;2023-03-23T05:29:57;1.95;;;0.90;;
14526;SDS011;7350;51.208;4.238;2023-03-23T05:32:26;2.65;;;1.10;;
14526;SDS011;7350;51.208;4.238;2023-03-23T05:34:55;4.70;;;1.10;;
14526;SDS011;7350;51.208;4.238;2023-03-23T05:37:24;2.42;;;1.17;;
14526;SDS011;7350;51.208;4.238;2023-03-23T05:39:53;2.10;;;1.00;;
14526;SDS011;7350;51.208;4.238;2023-03-23T05:42:21;3.35;;;1.02;;
14526;SDS011;7350;51.208;4.238;2023-03-23T05:44:49;2.40;;;1.10;;
14526;SDS011;7350;51.208;4.238;2023-03-23T05:47:16;3.08;;;1.10;;
14526;SDS011;7350;51.208;4.238;2023-03-23T05:49:43;1.60;;;0.98;;
14526;SDS011;7350;51.208;4.238;2023-03-23T05:52:11;2.67;;;1.27;;
14526;SDS011;7350;51.208;4.238;2023-03-23T05:54:39;3.60;;;1.30;;
14526;SDS011;7350;51.208;4.238;2023-03-23T05:57:06;3.55;;;1.23;;
14526;SDS011;7350;51.208;4.238;2023-03-23T05:59:34;2.28;;;1.00;;
14526;SDS011;7350;51.208;4.238;2023-03-23T06:02:01;4.35;;;1.20;;
14526;SDS011;7350;51.208;4.238;2023-03-23T06:04:28;1.95;;;0.93;;
14526;SDS011;7350;51.208;4.238;2023-03-23T06:06:55;2.85;;;0.90;;
14526;SDS011;7350;51.208;4.238;2023-03-23T06:09:22;3.35;;;1.13;;
14526;SDS011;7350;51.208;4.238;2023-03-23T06:11:51;4.25;;;1.25;;
14526;SDS011;7350;51.208;4.238;2023-03-23T06:14:18;2.63;;;1.00;;
14526;SDS011;7350;51.208;4.238;2023-03-23T06:16:46;3.10;;;1.00;;
14526;SDS011;7350;51.208;4.238;2023-03-23T06:19:13;2.72;;;1.20;;
14526;SDS011;7350;51.208;4.238;2023-03-23T06:21:41;8.18;;;1.40;;
14526;SDS011;7350;51.208;4.238;2023-03-23T06:24:08;3.17;;;1.10;;
14526;SDS011;7350;51.208;4.238;2023-03-23T06:26:36;2.08;;;0.95;;
14526;SDS011;7350;51.208;4.238;2023-03-23T06:29:07;2.78;;;1.00;;
14526;SDS011;7350;51.208;4.238;2023-03-23T06:31:37;3.78;;;1.10;;
14526;SDS011;7350;51.208;4.238;2023-03-23T06:34:06;2.75;;;1.20;;
14526;SDS011;7350;51.208;4.238;2023-03-23T06:36:33;2.65;;;1.35;;
14526;SDS011;7350;51.208;4.238;2023-03-23T06:39:01;2.15;;;1.00;;
14526;SDS011;7350;51.208;4.238;2023-03-23T06:41:29;4.03;;;1.10;;
14526;SDS011;7350;51.208;4.238;2023-03-23T06:43:56;2.92;;;1.00;;
14526;SDS011;7350;51.208;4.238;2023-03-23T06:46:25;1.67;;;1.17;;
14526;SDS011;7350;51.208;4.238;2023-03-23T06:48:52;1.67;;;1.05;;
14526;SDS011;7350;51.208;4.238;2023-03-23T06:51:20;1.60;;;0.95;;
14526;SDS011;7350;51.208;4.238;2023-03-23T06:53:47;1.65;;;0.82;;
14526;SDS011;7350;51.208;4.238;2023-03-23T06:56:14;3.03;;;1.10;;
14526;SDS011;7350;51.208;4.238;2023-03-23T06:58:41;6.68;;;1.10;;
14526;SDS011;7350;51.208;4.238;2023-03-23T07:01:10;3.65;;;1.00;;
14526;SDS011;7350;51.208;4.238;2023-03-23T07:03:39;5.38;;;1.20;;
14526;SDS011;7350;51.208;4.238;2023-03-23T07:06:06;2.83;;;1.10;;
14526;SDS011;7350;51.208;4.238;2023-03-23T07:08:34;2.78;;;1.20;;
14526;SDS011;7350;51.208;4.238;2023-03-23T07:11:01;3.72;;;0.95;;
14526;SDS011;7350;51.208;4.238;2023-03-23T07:13:31;3.35;;;1.05;;
14526;SDS011;7350;51.208;4.238;2023-03-23T07:15:58;2.88;;;1.10;;
14526;SDS011;7350;51.208;4.238;2023-03-23T07:18:25;3.33;;;1.23;;
14526;SDS011;7350;51.208;4.238;2023-03-23T07:20:54;3.72;;;0.98;;
14526;SDS011;7350;51.208;4.238;2023-03-23T07:23:21;2.63;;;1.02;;
14526;SDS011;7350;51.208;4.238;2023-03-23T07:25:48;3.80;;;1.73;;
14526;SDS011;7350;51.208;4.238;2023-03-23T07:28:15;2.90;;;1.20;;
14526;SDS011;7350;51.208;4.238;2023-03-23T07:30:42;2.53;;;0.90;;
14526;SDS011;7350;51.208;4.238;2023-03-23T07:33:10;3.55;;;1.02;;
14526;SDS011;7350;51.208;4.238;2023-03-23T07:35:37;2.10;;;0.82;;
14526;SDS011;7350;51.208;4.238;2023-03-23T07:38:06;3.38;;;1.15;;
14526;SDS011;7350;51.208;4.238;2023-03-23T07:40:34;3.13;;;0.70;;
14526;SDS011;7350;51.208;4.238;2023-03-23T07:43:01;4.38;;;0.90;;
14526;SDS011;7350;51.208;4.238;2023-03-23T07:45:29;2.53;;;1.00;;
14526;SDS011;7350;51.208;4.238;2023-03-23T07:47:57;2.53;;;0.90;;
14526;SDS011;7350;51.208;4.238;2023-03-23T07:50:24;3.08;;;1.10;;
14526;SDS011;7350;51.208;4.238;2023-03-23T07:52:53;2.75;;;1.02;;
14526;SDS011;7350;51.208;4.238;2023-03-23T07:55:22;3.08;;;1.00;;
14526;SDS011;7350;51.208;4.238;2023-03-23T07:57:49;3.53;;;1.10;;
14526;SDS011;7350;51.208;4.238;2023-03-23T08:00:18;3.33;;;1.20;;
14526;SDS011;7350;51.208;4.238;2023-03-23T08:02:49;2.05;;;1.20;;
14526;SDS011;7350;51.208;4.238;2023-03-23T08:05:17;2.00;;;1.00;;
14526;SDS011;7350;51.208;4.238;2023-03-23T08:07:47;4.40;;;1.25;;
14526;SDS011;7350;51.208;4.238;2023-03-23T08:10:15;4.63;;;1.10;;
14526;SDS011;7350;51.208;4.238;2023-03-23T08:12:45;3.30;;;1.23;;
14526;SDS011;7350;51.208;4.238;2023-03-23T08:15:12;2.10;;;0.85;;
14526;SDS011;7350;51.208;4.238;2023-03-23T08:17:40;2.85;;;1.00;;
14526;SDS011;7350;51.208;4.238;2023-03-23T08:20:09;1.60;;;0.80;;
14526;SDS011;7350;51.208;4.238;2023-03-23T08:22:38;2.47;;;1.00;;
14526;SDS011;7350;51.208;4.238;2023-03-23T08:25:06;3.47;;;1.10;;
14526;SDS011;7350;51.208;4.238;2023-03-23T08:27:35;4.43;;;1.35;;
14526;SDS011;7350;51.208;4.238;2023-03-23T08:30:04;2.90;;;1.17;;
14526;SDS011;7350;51.208;4.238;2023-03-23T08:32:32;3.58;;;1.20;;
14526;SDS011;7350;51.208;4.238;2023-03-23T08:35:00;3.60;;;1.08;;
14526;SDS011;7350;51.208;4.238;2023-03-23T08:37:29;2.55;;;1.10;;
14526;SDS011;7350;51.208;4.238;2023-03-23T08:39:56;2.53;;;1.30;;
14526;SDS011;7350;51.208;4.238;2023-03-23T08:42:24;2.13;;;1.10;;
14526;SDS011;7350;51.208;4.238;2023-03-23T08:44:51;3.67;;;1.10;;
14526;SDS011;7350;51.208;4.238;2023-03-23T08:47:20;2.88;;;0.88;;
14526;SDS011;7350;51.208;4.238;2023-03-23T08:49:47;1.42;;;1.00;;
14526;SDS011;7350;51.208;4.238;2023-03-23T08:52:18;1.25;;;1.00;;
14526;SDS011;7350;51.208;4.238;2023-03-23T08:54:45;3.20;;;1.00;;
14526;SDS011;7350;51.208;4.238;2023-03-23T08:57:12;3.20;;;1.00;;
14526;SDS011;7350;51.208;4.238;2023-03-23T08:59:41;3.33;;;1.27;;
14526;SDS011;7350;51.208;4.238;2023-03-23T09:02:09;3.35;;;1.35;;
14526;SDS011;7350;51.208;4.238;2023-03-23T09:04:39;3.90;;;1.70;;
14526;SDS011;7350;51.208;4.238;2023-03-23T09:07:07;4.57;;;1.83;;
14526;SDS011;7350;51.208;4.238;2023-03-23T09:09:36;3.67;;;1.90;;
14526;SDS011;7350;51.208;4.238;2023-03-23T09:12:04;6.30;;;2.55;;
14526;SDS011;7350;51.208;4.238;2023-03-23T09:14:31;6.25;;;2.55;;
14526;SDS011;7350;51.208;4.238;2023-03-23T09:16:58;6.82;;;3.15;;
14526;SDS011;7350;51.208;4.238;2023-03-23T09:19:26;6.32;;;3.42;;
14526;SDS011;7350;51.208;4.238;2023-03-23T09:21:54;5.53;;;2.80;;
14526;SDS011;7350;51.208;4.238;2023-03-23T09:24:21;5.93;;;3.15;;
14526;SDS011;7350;51.208;4.238;2023-03-23T09:26:48;6.63;;;3.72;;
14526;SDS011;7350;51.208;4.238;2023-03-23T09:29:15;7.88;;;3.92;;
14526;SDS011;7350;51.208;4.238;2023-03-23T09:31:43;9.02;;;4.18;;
14526;SDS011;7350;51.208;4.238;2023-03-23T09:34:11;9.40;;;4.18;;
14526;SDS011;7350;51.208;4.238;2023-03-23T09:36:40;12.98;;;4.90;;
14526;SDS011;7350;51.208;4.238;2023-03-23T09:39:09;7.78;;;4.38;;
14526;SDS011;7350;51.208;4.238;2023-03-23T09:41:46;10.23;;;4.90;;
14526;SDS011;7350;51.208;4.238;2023-03-23T09:44:34;10.80;;;4.93;;
14526;SDS011;7350;51.208;4.238;2023-03-23T09:47:10;12.20;;;5.32;;
14526;SDS011;7350;51.208;4.238;2023-03-23T09:49:45;11.13;;;5.75;;
14526;SDS011;7350;51.208;4.238;2023-03-23T09:52:18;11.73;;;5.18;;
14526;SDS011;7350;51.208;4.238;2023-03-23T09:54:47;10.00;;;5.25;;
14526;SDS011;7350;51.208;4.238;2023-03-23T09:57:18;11.77;;;5.78;;
14526;SDS011;7350;51.208;4.238;2023-03-23T09:59:54;15.27;;;6.47;;
14526;SDS011;7350;51.208;4.238;2023-03-23T10:02:27;14.70;;;7.03;;
14526;SDS011;7350;51.208;4.238;2023-03-23T10:05:01;14.02;;;6.85;;
14526;SDS011;7350;51.208;4.238;2023-03-23T10:07:43;12.82;;;6.75;;
14526;SDS011;7350;51.208;4.238;2023-03-23T10:10:13;10.30;;;6.32;;
14526;SDS011;7350;51.208;4.238;2023-03-23T10:12:41;9.60;;;5.50;;
14526;SDS011;7350;51.208;4.238;2023-03-23T10:15:16;10.73;;;5.72;;
14526;SDS011;7350;51.208;4.238;2023-03-23T10:17:46;13.13;;;6.60;;
14526;SDS011;7350;51.208;4.238;2023-03-23T10:20:21;13.40;;;6.00;;
14526;SDS011;7350;51.208;4.238;2023-03-23T10:22:56;9.80;;;5.63;;
14526;SDS011;7350;51.208;4.238;2023-03-23T10:25:34;11.77;;;5.50;;
14526;SDS011;7350;51.208;4.238;2023-03-23T10:28:05;10.77;;;5.03;;
14526;SDS011;7350;51.208;4.238;2023-03-23T10:30:37;11.02;;;4.88;;
14526;SDS011;7350;51.208;4.238;2023-03-23T10:33:08;10.13;;;4.85;;
14526;SDS011;7350;51.208;4.238;2023-03-23T10:35:42;8.80;;;4.47;;
14526;SDS011;7350;51.208;4.238;2023-03-23T10:38:12;11.70;;;4.80;;
14526;SDS011;7350;51.208;4.238;2023-03-23T10:40:47;9.85;;;3.65;;
14526;SDS011;7350;51.208;4.238;2023-03-23T10:43:20;7.65;;;3.90;;
14526;SDS011;7350;51.208;4.238;2023-03-23T10:45:49;9.55;;;4.07;;
14526;SDS011;7350;51.208;4.238;2023-03-23T10:48:23;7.18;;;3.38;;
14526;SDS011;7350;51.208;4.238;2023-03-23T10:50:56;11.45;;;3.75;;
14526;SDS011;7350;51.208;4.238;2023-03-23T10:53:27;7.40;;;3.28;;
14526;SDS011;7350;51.208;4.238;2023-03-23T10:56:00;7.18;;;3.53;;
14526;SDS011;7350;51.208;4.238;2023-03-23T10:58:29;7.60;;;3.33;;
14526;SDS011;7350;51.208;4.238;2023-03-23T11:00:57;5.47;;;2.88;;
14526;SDS011;7350;51.208;4.238;2023-03-23T11:03:28;9.35;;;3.58;;
14526;SDS011;7350;51.208;4.238;2023-03-23T11:06:04;5.70;;;3.13;;
14526;SDS011;7350;51.208;4.238;2023-03-23T11:08:34;7.72;;;3.03;;
14526;SDS011;7350;51.208;4.238;2023-03-23T11:11:11;5.95;;;2.55;;
14526;SDS011;7350;51.208;4.238;2023-03-23T11:13:43;5.95;;;2.65;;
14526;SDS011;7350;51.208;4.238;2023-03-23T11:16:21;7.72;;;3.15;;
14526;SDS011;7350;51.208;4.238;2023-03-23T11:18:50;5.60;;;2.83;;
14526;SDS011;7350;51.208;4.238;2023-03-23T11:21:17;5.57;;;3.15;;
14526;SDS011;7350;51.208;4.238;2023-03-23T11:23:48;3.97;;;2.35;;
14526;SDS011;7350;51.208;4.238;2023-03-23T11:26:19;6.40;;;2.90;;
14526;SDS011;7350;51.208;4.238;2023-03-23T11:28:48;6.00;;;2.50;;
14526;SDS011;7350;51.208;4.238;2023-03-23T11:31:21;6.43;;;2.67;;
14526;SDS011;7350;51.208;4.238;2023-03-23T11:33:51;5.55;;;2.47;;
14526;SDS011;7350;51.208;4.238;2023-03-23T11:36:21;6.38;;;2.33;;
14526;SDS011;7350;51.208;4.238;2023-03-23T11:38:56;6.90;;;2.50;;
14526;SDS011;7350;51.208;4.238;2023-03-23T11:41:26;7.13;;;2.72;;
14526;SDS011;7350;51.208;4.238;2023-03-23T11:44:01;6.30;;;2.50;;
14526;SDS011;7350;51.208;4.238;2023-03-23T11:46:37;6.40;;;2.50;;
14526;SDS011;7350;51.208;4.238;2023-03-23T11:49:12;6.75;;;2.90;;
14526;SDS011;7350;51.208;4.238;2023-03-23T11:51:46;5.32;;;2.58;;
14526;SDS011;7350;51.208;4.238;2023-03-23T11:54:17;5.63;;;2.58;;
14526;SDS011;7350;51.208;4.238;2023-03-23T11:56:54;4.53;;;2.08;;
14526;SDS011;7350;51.208;4.238;2023-03-23T11:59:26;5.90;;;2.20;;
14526;SDS011;7350;51.208;4.238;2023-03-23T12:01:56;3.78;;;2.13;;
14526;SDS011;7350;51.208;4.238;2023-03-23T12:04:40;6.65;;;2.47;;
14526;SDS011;7350;51.208;4.238;2023-03-23T12:07:22;6.30;;;2.05;;
14526;SDS011;7350;51.208;4.238;2023-03-23T12:10:04;4.95;;;2.13;;
14526;SDS011;7350;51.208;4.238;2023-03-23T12:12:43;4.43;;;2.17;;
14526;SDS011;7350;51.208;4.238;2023-03-23T12:15:19;7.25;;;2.40;;
14526;SDS011;7350;51.208;4.238;2023-03-23T12:17:54;6.10;;;2.03;;
14526;SDS011;7350;51.208;4.238;2023-03-23T12:20:29;6.72;;;2.42;;
14526;SDS011;7350;51.208;4.238;2023-03-23T12:23:11;5.38;;;2.20;;
14526;SDS011;7350;51.208;4.238;2023-03-23T12:25:56;5.30;;;2.17;;
14526;SDS011;7350;51.208;4.238;2023-03-23T12:28:52;5.95;;;2.20;;
14526;SDS011;7350;51.208;4.238;2023-03-23T12:31:39;4.78;;;1.95;;
14526;SDS011;7350;51.208;4.238;2023-03-23T12:34:16;7.25;;;2.10;;
14526;SDS011;7350;51.208;4.238;2023-03-23T12:36:55;5.65;;;2.10;;
14526;SDS011;7350;51.208;4.238;2023-03-23T12:39:37;5.05;;;1.80;;
14526;SDS011;7350;51.208;4.238;2023-03-23T12:42:19;4.25;;;1.77;;
14526;SDS011;7350;51.208;4.238;2023-03-23T12:44:56;4.05;;;1.75;;
14526;SDS011;7350;51.208;4.238;2023-03-23T12:47:33;5.78;;;2.03;;
14526;SDS011;7350;51.208;4.238;2023-03-23T12:50:06;4.35;;;1.95;;
14526;SDS011;7350;51.208;4.238;2023-03-23T12:52:39;4.70;;;2.03;;
14526;SDS011;7350;51.208;4.238;2023-03-23T12:55:14;5.97;;;1.85;;
14526;SDS011;7350;51.208;4.238;2023-03-23T12:57:46;4.40;;;1.60;;
14526;SDS011;7350;51.208;4.238;2023-03-23T13:00:20;2.80;;;1.55;;
14526;SDS011;7350;51.208;4.238;2023-03-23T13:02:51;6.63;;;1.85;;
14526;SDS011;7350;51.208;4.238;2023-03-23T13:05:28;6.50;;;2.00;;
14526;SDS011;7350;51.208;4.238;2023-03-23T13:08:03;6.00;;;2.05;;
14526;SDS011;7350;51.208;4.238;2023-03-23T13:10:36;6.00;;;2.25;;
14526;SDS011;7350;51.208;4.238;2023-03-23T13:13:08;4.35;;;1.90;;
14526;SDS011;7350;51.208;4.238;2023-03-23T13:15:43;6.90;;;2.03;;
14526;SDS011;7350;51.208;4.238;2023-03-23T13:18:20;3.03;;;1.80;;
14526;SDS011;7350;51.208;4.238;2023-03-23T13:20:58;4.80;;;1.80;;
14526;SDS011;7350;51.208;4.238;2023-03-23T13:23:34;5.28;;;1.90;;
14526;SDS011;7350;51.208;4.238;2023-03-23T13:26:05;6.60;;;1.95;;
14526;SDS011;7350;51.208;4.238;2023-03-23T13:28:47;5.38;;;1.70;;
14526;SDS011;7350;51.208;4.238;2023-03-23T13:31:20;4.78;;;2.10;;
14526;SDS011;7350;51.208;4.238;2023-03-23T13:33:51;5.30;;;1.83;;
14526;SDS011;7350;51.208;4.238;2023-03-23T13:36:26;4.03;;;1.73;;
14526;SDS011;7350;51.208;4.238;2023-03-23T13:38:55;5.38;;;1.70;;
14526;SDS011;7350;51.208;4.238;2023-03-23T13:41:25;6.20;;;2.10;;
14526;SDS011;7350;51.208;4.238;2023-03-23T13:44:04;5.80;;;2.17;;
14526;SDS011;7350;51.208;4.238;2023-03-23T13:46:52;4.70;;;2.20;;
14526;SDS011;7350;51.208;4.238;2023-03-23T13:49:21;5.18;;;2.08;;
14526;SDS011;7350;51.208;4.238;2023-03-23T13:52:14;5.75;;;2.08;;
14526;SDS011;7350;51.208;4.238;2023-03-23T13:54:50;5.70;;;1.80;;
14526;SDS011;7350;51.208;4.238;2023-03-23T13:57:25;4.72;;;2.00;;
14526;SDS011;7350;51.208;4.238;2023-03-23T14:00:09;4.05;;;1.95;;
14526;SDS011;7350;51.208;4.238;2023-03-23T14:02:57;5.68;;;2.40;;
14526;SDS011;7350;51.208;4.238;2023-03-23T14:05:31;7.75;;;2.22;;
14526;SDS011;7350;51.208;4.238;2023-03-23T14:08:01;4.75;;;2.20;;
14526;SDS011;7350;51.208;4.238;2023-03-23T14:10:36;3.75;;;1.92;;
14526;SDS011;7350;51.208;4.238;2023-03-23T14:13:06;4.60;;;2.00;;
14526;SDS011;7350;51.208;4.238;2023-03-23T14:15:42;5.95;;;1.83;;
14526;SDS011;7350;51.208;4.238;2023-03-23T14:18:14;5.97;;;2.20;;
14526;SDS011;7350;51.208;4.238;2023-03-23T14:20:42;4.80;;;2.17;;
14526;SDS011;7350;51.208;4.238;2023-03-23T14:23:14;5.15;;;2.15;;
14526;SDS011;7350;51.208;4.238;2023-03-23T14:25:42;7.28;;;2.28;;
14526;SDS011;7350;51.208;4.238;2023-03-23T14:28:16;6.22;;;2.30;;
14526;SDS011;7350;51.208;4.238;2023-03-23T14:30:46;4.95;;;1.95;;
14526;SDS011;7350;51.208;4.238;2023-03-23T14:33:16;4.20;;;2.10;;
14526;SDS011;7350;51.208;4.238;2023-03-23T14:35:43;5.93;;;1.65;;
14526;SDS011;7350;51.208;4.238;2023-03-23T14:38:13;6.75;;;2.08;;
14526;SDS011;7350;51.208;4.238;2023-03-23T14:40:43;4.82;;;1.85;;
14526;SDS011;7350;51.208;4.238;2023-03-23T14:43:10;4.90;;;1.80;;
14526;SDS011;7350;51.208;4.238;2023-03-23T14:45:41;4.35;;;1.73;;
14526;SDS011;7350;51.208;4.238;2023-03-23T14:48:08;3.42;;;1.65;;
14526;SDS011;7350;51.208;4.238;2023-03-23T14:50:41;10.55;;;2.00;;
14526;SDS011;7350;51.208;4.238;2023-03-23T14:53:16;5.53;;;1.83;;
14526;SDS011;7350;51.208;4.238;2023-03-23T14:55:48;9.48;;;2.00;;
14526;SDS011;7350;51.208;4.238;2023-03-23T14:58:16;7.45;;;1.88;;
14526;SDS011;7350;51.208;4.238;2023-03-23T15:00:46;7.30;;;1.80;;
14526;SDS011;7350;51.208;4.238;2023-03-23T15:03:16;6.15;;;2.25;;
14526;SDS011;7350;51.208;4.238;2023-03-23T15:05:47;6.63;;;2.00;;
14526;SDS011;7350;51.208;4.238;2023-03-23T15:08:18;7.90;;;1.77;;
14526;SDS011;7350;51.208;4.238;2023-03-23T15:10:54;8.90;;;2.47;;
14526;SDS011;7350;51.208;4.238;2023-03-23T15:13:31;5.57;;;2.03;;
14526;SDS011;7350;51.208;4.238;2023-03-23T15:16:03;7.65;;;1.92;;
14526;SDS011;7350;51.208;4.238;2023-03-23T15:18:33;6.57;;;2.33;;
14526;SDS011;7350;51.208;4.238;2023-03-23T15:21:10;8.55;;;2.13;;
14526;SDS011;7350;51.208;4.238;2023-03-23T15:23:46;8.77;;;2.22;;
14526;SDS011;7350;51.208;4.238;2023-03-23T15:26:25;7.53;;;2.30;;
14526;SDS011;7350;51.208;4.238;2023-03-23T15:29:10;6.05;;;2.08;;